Disney Magic — C6PT7 — position and weather

sailwx.info

Track history (hours):
 
Tides and Currents Weather Stations Pressure Air Temp Water Temp Dewpoint Dewpoint Depression Visibility Wind Speed Wind Dir Waves Ship Positions

Disney Magic

Last reported at 2017-Aug-17 03:30 UTC. Time now 2017-Aug-17 03:40 UTC.
Position N 43°38' E 007°20'.

Type: Passenger vessel. MMSI: 308516000.

Date/timePositionNaut miles runAvg speedWind from/ knotsBaromVisibWave heightAir tempDewpointWater temp
2017-Aug-17 03:30N 43°38' E 007°20'714.7
2017-Aug-17 03:00N 43°36' E 007°30'815.5
2017-Aug-17 02:30N 43°34' E 007°40'816.4
2017-Aug-17 02:00N 43°33' E 007°51'918.7
2017-Aug-17 01:30N 43°33' E 008°04'918.4
2017-Aug-17 01:00N 43°33' E 008°17'918.1
2017-Aug-17 00:30N 43°33' E 008°29'918.0
2017-Aug-17 00:00N 43°33' E 008°42'918.0
2017-Aug-16 23:30N 43°32' E 008°54'917.9
2017-Aug-16 23:00N 43°32' E 009°07'510.4
2017-Aug-16 22:31N 43°32' E 009°14'5 9.3
2017-Aug-16 22:00N 43°32' E 009°20'5 9.3
2017-Aug-16 21:30N 43°32' E 009°27'5 9.3
2017-Aug-16 21:00N 43°32' E 009°33'5 9.3
2017-Aug-16 20:30N 43°32' E 009°39'5 9.3
2017-Aug-16 20:00N 43°32' E 009°46'5 9.3
2017-Aug-16 19:31N 43°32' E 009°52'5 9.1
2017-Aug-16 19:01N 43°31' E 009°58'5 9.1
2017-Aug-16 18:30N 43°30' E 010°04'4 8.5
2017-Aug-16 18:00N 43°30' E 010°10'4 8.8
2017-Aug-16 17:30N 43°32' E 010°16'2 3.5
2017-Aug-16 16:57N 43°33' E 010°18'0 0.0
2017-Aug-16 16:30N 43°33' E 010°18'0 0.0
2017-Aug-16 16:00N 43°33' E 010°18'0 0.0
2017-Aug-16 15:27N 43°33' E 010°18'0 0.0
2017-Aug-16 15:00N 43°33' E 010°18'0 0.0
2017-Aug-16 14:27N 43°33' E 010°18'0 0.0
2017-Aug-16 14:00N 43°33' E 010°18'0 0.0
2017-Aug-16 13:30N 43°33' E 010°18'0 0.0
2017-Aug-16 13:00N 43°33' E 010°18'0 0.0
2017-Aug-16 12:30N 43°33' E 010°18'0 0.0
2017-Aug-16 12:00N 43°33' E 010°18'0 0.0
2017-Aug-16 11:30N 43°33' E 010°18'0 0.0
2017-Aug-16 11:00N 43°33' E 010°18'0 0.0
2017-Aug-16 10:30N 43°33' E 010°18'0 0.0
2017-Aug-16 10:00N 43°33' E 010°18'0 0.0
2017-Aug-16 09:30N 43°33' E 010°18'0 0.0
2017-Aug-16 09:00N 43°33' E 010°18'0 0.0
2017-Aug-16 08:30N 43°33' E 010°18'0 0.0
2017-Aug-16 08:00N 43°33' E 010°18'0 0.0
2017-Aug-16 07:30N 43°33' E 010°18'0 0.0
2017-Aug-16 07:00N 43°33' E 010°18'0 0.0
2017-Aug-16 06:27N 43°33' E 010°18'0 0.0
2017-Aug-16 06:00N 43°33' E 010°18'0 0.0
2017-Aug-16 05:30N 43°33' E 010°18'0 0.0
2017-Aug-16 05:00N 43°33' E 010°18'0 0.0
2017-Aug-16 04:30N 43°33' E 010°18'1 1.6
2017-Aug-16 04:00N 43°33' E 010°17'4 8.0
2017-Aug-16 03:30N 43°30' E 010°14'714.1
2017-Aug-16 03:00N 43°23' E 010°10'714.7
2017-Aug-16 02:30N 43°16' E 010°07'814.7
2017-Aug-16 01:59N 43°09' E 010°04'715.4
2017-Aug-16 01:30N 43°02' E 010°03'815.4
2017-Aug-16 01:00N 42°54' E 009°58'815.9
2017-Aug-16 00:30N 42°47' E 009°55'815.9
2017-Aug-16 00:00N 42°39' E 009°53'917.1
2017-Aug-15 23:30N 42°31' E 009°54'917.3
2017-Aug-15 23:00N 42°22' E 009°54'917.7
2017-Aug-15 22:30N 42°13' E 009°54'816.0
2017-Aug-15 22:00N 42°06' E 009°58'917.7
2017-Aug-15 21:30N 42°05' E 010°10'1217.7
2017-Aug-15 20:50N 42°04' E 010°26'817.6
2017-Aug-15 20:22N 42°03' E 010°38'817.8
2017-Aug-15 19:53N 42°02' E 010°49'717.9
2017-Aug-15 19:31N 42°01' E 010°58'917.6
2017-Aug-15 19:00N 42°01' E 011°10'48 2.7
2017-Aug-15 01:03N 41°29' E 011°57'117.8
2017-Aug-15 01:00N 41°28' E 011°57'2718.2
2017-Aug-14 23:32N 41°05' E 012°16'117.9
2017-Aug-14 23:30N 41°05' E 012°17'917.7
2017-Aug-14 23:00N 40°57' E 012°23'3616.1
2017-Aug-14 20:47N 40°37' E 013°01'717.3
2017-Aug-14 20:21N 40°35' E 013°11'1917.3
2017-Aug-14 19:15N 40°32' E 013°35'617.5
2017-Aug-14 18:53N 40°34' E 013°44'717.4
2017-Aug-14 18:30N 40°36' E 013°52'917.5
2017-Aug-14 18:00N 40°38' E 014°03'816.3
2017-Aug-14 17:30N 40°44' E 014°10'815.3
2017-Aug-14 17:01N 40°50' E 014°17'1 2.6
2017-Aug-14 16:29N 40°51' E 014°16'146 6.1
2017-Aug-13 16:23N 41°02' E 011°03'1118.0
2017-Aug-13 15:45N 41°04' E 010°48'1718.1
2017-Aug-13 14:49N 41°10' E 010°27'618.1
2017-Aug-13 14:31N 41°12' E 010°20'1418.0
2017-Aug-13 13:45N 41°15' E 010°03'517.6
2017-Aug-13 13:30N 41°17' E 009°57'917.9
2017-Aug-13 13:00N 41°20' E 009°46'917.5
2017-Aug-13 12:30N 41°22' E 009°35'816.6
2017-Aug-13 12:00N 41°22' E 009°24'6316.7
2017-Aug-13 08:13N 41°17' E 007°60'717.8
2017-Aug-13 07:50N 41°17' E 007°50'617.8
2017-Aug-13 07:30N 41°17' E 007°42'918.1
2017-Aug-13 07:00N 41°17' E 007°31'1017.9
2017-Aug-13 06:26N 41°17' E 007°17'2317.7
2017-Aug-13 05:09N 41°17' E 006°47'317.6
2017-Aug-13 04:59N 41°17' E 006°43'917.8
2017-Aug-13 04:31N 41°17' E 006°32'917.8
2017-Aug-13 04:00N 41°17' E 006°20'917.7
2017-Aug-13 03:30N 41°17' E 006°08'16218.3
2017-Aug-12 18:37N 41°17' E 002°32'218.2
2017-Aug-12 18:30N 41°17' E 002°29'917.9
2017-Aug-12 18:00N 41°15' E 002°18'611.3
2017-Aug-12 17:29N 41°17' E 002°11'4 8.6
2017-Aug-12 17:00N 41°22' E 002°11'2 0.2
2017-Aug-12 02:09N 41°19' E 002°10'1 8.3
2017-Aug-12 02:00N 41°18' E 002°11'912.4
2017-Aug-12 01:15N 41°12' E 002°20'515.2
2017-Aug-12 00:57N 41°10' E 002°26'715.3
2017-Aug-12 00:30N 41°07' E 002°34'815.5
2017-Aug-12 00:00N 41°03' E 002°43'815.5
2017-Aug-11 23:30N 40°59' E 002°52'815.6
2017-Aug-11 23:00N 40°55' E 003°01'815.8
2017-Aug-11 22:30N 40°51' E 003°10'816.7
2017-Aug-11 22:00N 40°47' E 003°19'917.1
2017-Aug-11 21:30N 40°42' E 003°29'28919.1
2017-Aug-11 06:25N 38°42' E 009°10'922.0
2017-Aug-11 05:59N 38°45' E 009°21'2920.2
2017-Aug-11 04:32N 39°03' E 009°51'194 6.6
2017-Aug-09 23:16N 42°14' E 010°37'817.0
2017-Aug-09 22:47N 42°20' E 010°30'717.3
2017-Aug-09 22:24N 42°26' E 010°25'717.1
2017-Aug-09 22:00N 42°31' E 010°19'1316.4
2017-Aug-09 21:14N 42°40' E 010°08'416.3
2017-Aug-09 21:01N 42°42' E 010°03'714.8
2017-Aug-09 20:31N 42°48' E 009°58'917.5
2017-Aug-09 20:01N 42°57' E 010°00'917.4
2017-Aug-09 19:31N 43°05' E 010°03'917.1
2017-Aug-09 19:01N 43°13' E 010°05'917.0
2017-Aug-09 18:30N 43°22' E 010°06'816.5
2017-Aug-09 18:01N 43°30' E 010°10'611.3
2017-Aug-09 17:30N 43°32' E 010°17'1 2.4
2017-Aug-09 17:00N 43°33' E 010°18'0 0.0
2017-Aug-09 16:27N 43°33' E 010°18'0 0.0
2017-Aug-09 15:57N 43°33' E 010°18'0 0.0
2017-Aug-09 15:27N 43°33' E 010°18'0 0.0
2017-Aug-09 15:00N 43°33' E 010°18'0 0.0
2017-Aug-09 14:30N 43°33' E 010°18'0 0.0
2017-Aug-09 14:00N 43°33' E 010°18'0 0.0
2017-Aug-09 13:30N 43°33' E 010°18'0 0.0
2017-Aug-09 13:00N 43°33' E 010°18'0 0.0
2017-Aug-09 12:30N 43°33' E 010°18'0 0.0
2017-Aug-09 11:57N 43°33' E 010°18'0 0.0
2017-Aug-09 11:27N 43°33' E 010°18'0 0.0
2017-Aug-09 11:00N 43°33' E 010°18'0 0.0
2017-Aug-09 10:27N 43°33' E 010°18'0 0.0
2017-Aug-09 10:00N 43°33' E 010°18'0 0.0
2017-Aug-09 09:30N 43°33' E 010°18'0 0.0
2017-Aug-09 09:00N 43°33' E 010°18'0 0.0
2017-Aug-09 08:30N 43°33' E 010°18'0 0.0
2017-Aug-09 08:00N 43°33' E 010°18'0 0.0
2017-Aug-09 07:30N 43°33' E 010°18'0 0.0
2017-Aug-09 07:00N 43°33' E 010°18'0 0.0
2017-Aug-09 06:30N 43°33' E 010°18'0 0.0
2017-Aug-09 06:00N 43°33' E 010°18'0 0.0
2017-Aug-09 05:30N 43°33' E 010°18'0 0.0
2017-Aug-09 05:00N 43°33' E 010°18'0 0.0
2017-Aug-09 04:27N 43°33' E 010°18'1 1.5
2017-Aug-09 04:00N 43°33' E 010°17'4 7.9
2017-Aug-09 03:30N 43°30' E 010°13'4 9.0
2017-Aug-09 03:00N 43°29' E 010°07'5 9.6
2017-Aug-09 02:30N 43°30' E 010°01'5 9.6
2017-Aug-09 02:00N 43°32' E 009°55'5 9.4
2017-Aug-09 01:30N 43°32' E 009°48'5 9.4
2017-Aug-09 01:00N 43°32' E 009°42'5 9.5
2017-Aug-09 00:30N 43°32' E 009°36'5 9.6
2017-Aug-09 00:00N 43°31' E 009°29'712.9
2017-Aug-08 23:29N 43°31' E 009°20'918.2
2017-Aug-08 23:00N 43°31' E 009°08'918.1
2017-Aug-08 22:31N 43°31' E 008°55'917.7
2017-Aug-08 22:00N 43°30' E 008°43'917.7
2017-Aug-08 21:30N 43°30' E 008°31'917.5
2017-Aug-08 21:00N 43°30' E 008°19'917.3
2017-Aug-08 20:30N 43°30' E 008°07'917.1
2017-Aug-08 20:01N 43°29' E 007°55'917.0
2017-Aug-08 19:31N 43°29' E 007°43'816.9
2017-Aug-08 19:00N 43°29' E 007°32'816.7
2017-Aug-08 18:31N 43°28' E 007°20'816.8
2017-Aug-08 18:01N 43°28' E 007°09'713.5
2017-Aug-08 17:30N 43°31' E 007°00'1 2.2
2017-Aug-08 16:57N 43°32' E 007°01'0 0.0
2017-Aug-08 16:30N 43°32' E 007°01'0 0.0
2017-Aug-08 16:00N 43°32' E 007°01'0 0.0
2017-Aug-08 15:30N 43°32' E 007°01'0 0.0
2017-Aug-08 15:00N 43°32' E 007°01'0 0.0
2017-Aug-08 14:30N 43°32' E 007°01'0 0.0
2017-Aug-08 13:57N 43°32' E 007°01'0 0.0
2017-Aug-08 13:30N 43°32' E 007°01'0 0.0
2017-Aug-08 13:00N 43°32' E 007°01'0 0.0
2017-Aug-08 12:30N 43°32' E 007°01'0 0.0
2017-Aug-08 12:00N 43°32' E 007°01'0 0.0
2017-Aug-08 11:30N 43°32' E 007°01'0 0.0
2017-Aug-08 10:57N 43°32' E 007°01'0 0.0
2017-Aug-08 10:30N 43°32' E 007°01'0 0.1
2017-Aug-08 10:00N 43°32' E 007°01'0 0.0
2017-Aug-08 09:30N 43°32' E 007°01'0 0.0
2017-Aug-08 09:00N 43°32' E 007°01'0 0.0
2017-Aug-08 08:24N 43°32' E 007°01'0 0.1
2017-Aug-08 08:00N 43°32' E 007°01'0 0.0
2017-Aug-08 07:30N 43°32' E 007°01'0 0.0
2017-Aug-08 07:00N 43°32' E 007°01'0 0.0
2017-Aug-08 06:30N 43°32' E 007°01'0 0.0
2017-Aug-08 06:00N 43°32' E 007°01'0 0.0
2017-Aug-08 05:30N 43°32' E 007°01'0 0.1
2017-Aug-08 05:00N 43°32' E 007°01'2 3.8
2017-Aug-08 04:30N 43°30' E 007°00'714.0
2017-Aug-08 04:00N 43°23' E 006°60'917.6
2017-Aug-08 03:30N 43°15' E 006°55'1019.2
2017-Aug-08 03:00N 43°07' E 006°49'1019.3
2017-Aug-08 02:30N 42°60' E 006°40'1020.9
2017-Aug-08 02:00N 42°53' E 006°29'1020.5
2017-Aug-08 01:30N 42°47' E 006°18'1019.0
2017-Aug-08 01:00N 42°44' E 006°06'1020.3
2017-Aug-08 00:30N 42°39' E 005°53'1221.6
2017-Aug-07 23:58N 42°34' E 005°39'5421.3
2017-Aug-07 21:27N 42°09' E 004°35'1022.2
2017-Aug-07 21:00N 42°05' E 004°23'1122.1
2017-Aug-07 20:30N 41°60' E 004°09'1021.2
2017-Aug-07 20:00N 41°55' E 003°57'1121.1
2017-Aug-07 19:30N 41°50' E 003°44'1021.3
2017-Aug-07 19:00N 41°45' E 003°32'1121.6
2017-Aug-07 18:30N 41°40' E 003°19'1122.3
2017-Aug-07 17:59N 41°35' E 003°05'1122.7
2017-Aug-07 17:30N 41°30' E 002°52'1222.6
2017-Aug-07 16:59N 41°25' E 002°38'1021.1
2017-Aug-07 16:30N 41°20' E 002°26'1019.6
2017-Aug-07 15:59N 41°16' E 002°14'5 9.3
2017-Aug-07 15:30N 41°20' E 002°10'1 0.2
2017-Aug-07 07:25N 41°21' E 002°11'0 0.0
2017-Aug-07 06:55N 41°21' E 002°11'  
Track history (hours):
 
Tides and Currents Weather Stations Pressure Air Temp Water Temp Dewpoint Dewpoint Depression Visibility Wind Speed Wind Dir Waves Ship Positions

Disney Magic

Last reported at 2017-Aug-17 03:30 UTC. Time now 2017-Aug-17 03:40 UTC.
Position N 43°38' E 007°20'.

Type: Passenger vessel. MMSI: 308516000.

Date/timePositionNaut miles runAvg speedWind from/ knotsBaromVisibWave heightAir tempDewpointWater temp
2017-Aug-17 03:30N 43°38' E 007°20'714.7
2017-Aug-17 03:00N 43°36' E 007°30'815.5
2017-Aug-17 02:30N 43°34' E 007°40'816.4
2017-Aug-17 02:00N 43°33' E 007°51'918.7
2017-Aug-17 01:30N 43°33' E 008°04'918.4
2017-Aug-17 01:00N 43°33' E 008°17'918.1
2017-Aug-17 00:30N 43°33' E 008°29'918.0
2017-Aug-17 00:00N 43°33' E 008°42'918.0
2017-Aug-16 23:30N 43°32' E 008°54'917.9
2017-Aug-16 23:00N 43°32' E 009°07'510.4
2017-Aug-16 22:31N 43°32' E 009°14'5 9.3
2017-Aug-16 22:00N 43°32' E 009°20'5 9.3
2017-Aug-16 21:30N 43°32' E 009°27'5 9.3
2017-Aug-16 21:00N 43°32' E 009°33'5 9.3
2017-Aug-16 20:30N 43°32' E 009°39'5 9.3
2017-Aug-16 20:00N 43°32' E 009°46'5 9.3
2017-Aug-16 19:31N 43°32' E 009°52'5 9.1
2017-Aug-16 19:01N 43°31' E 009°58'5 9.1
2017-Aug-16 18:30N 43°30' E 010°04'4 8.5
2017-Aug-16 18:00N 43°30' E 010°10'4 8.8
2017-Aug-16 17:30N 43°32' E 010°16'2 3.5
2017-Aug-16 16:57N 43°33' E 010°18'0 0.0
2017-Aug-16 16:30N 43°33' E 010°18'0 0.0
2017-Aug-16 16:00N 43°33' E 010°18'0 0.0
2017-Aug-16 15:27N 43°33' E 010°18'0 0.0
2017-Aug-16 15:00N 43°33' E 010°18'0 0.0
2017-Aug-16 14:27N 43°33' E 010°18'0 0.0
2017-Aug-16 14:00N 43°33' E 010°18'0 0.0
2017-Aug-16 13:30N 43°33' E 010°18'0 0.0
2017-Aug-16 13:00N 43°33' E 010°18'0 0.0
2017-Aug-16 12:30N 43°33' E 010°18'0 0.0
2017-Aug-16 12:00N 43°33' E 010°18'0 0.0
2017-Aug-16 11:30N 43°33' E 010°18'0 0.0
2017-Aug-16 11:00N 43°33' E 010°18'0 0.0
2017-Aug-16 10:30N 43°33' E 010°18'0 0.0
2017-Aug-16 10:00N 43°33' E 010°18'0 0.0
2017-Aug-16 09:30N 43°33' E 010°18'0 0.0
2017-Aug-16 09:00N 43°33' E 010°18'0 0.0
2017-Aug-16 08:30N 43°33' E 010°18'0 0.0
2017-Aug-16 08:00N 43°33' E 010°18'0 0.0
2017-Aug-16 07:30N 43°33' E 010°18'0 0.0
2017-Aug-16 07:00N 43°33' E 010°18'0 0.0
2017-Aug-16 06:27N 43°33' E 010°18'0 0.0
2017-Aug-16 06:00N 43°33' E 010°18'0 0.0
2017-Aug-16 05:30N 43°33' E 010°18'0 0.0
2017-Aug-16 05:00N 43°33' E 010°18'0 0.0
2017-Aug-16 04:30N 43°33' E 010°18'1 1.6
2017-Aug-16 04:00N 43°33' E 010°17'4 8.0
2017-Aug-16 03:30N 43°30' E 010°14'714.1
2017-Aug-16 03:00N 43°23' E 010°10'714.7
2017-Aug-16 02:30N 43°16' E 010°07'814.7
2017-Aug-16 01:59N 43°09' E 010°04'715.4
2017-Aug-16 01:30N 43°02' E 010°03'815.4
2017-Aug-16 01:00N 42°54' E 009°58'815.9
2017-Aug-16 00:30N 42°47' E 009°55'815.9
2017-Aug-16 00:00N 42°39' E 009°53'917.1
2017-Aug-15 23:30N 42°31' E 009°54'917.3
2017-Aug-15 23:00N 42°22' E 009°54'917.7
2017-Aug-15 22:30N 42°13' E 009°54'816.0
2017-Aug-15 22:00N 42°06' E 009°58'917.7
2017-Aug-15 21:30N 42°05' E 010°10'1217.7
2017-Aug-15 20:50N 42°04' E 010°26'817.6
2017-Aug-15 20:22N 42°03' E 010°38'817.8
2017-Aug-15 19:53N 42°02' E 010°49'717.9
2017-Aug-15 19:31N 42°01' E 010°58'917.6
2017-Aug-15 19:00N 42°01' E 011°10'48 2.7
2017-Aug-15 01:03N 41°29' E 011°57'117.8
2017-Aug-15 01:00N 41°28' E 011°57'2718.2
2017-Aug-14 23:32N 41°05' E 012°16'117.9
2017-Aug-14 23:30N 41°05' E 012°17'917.7
2017-Aug-14 23:00N 40°57' E 012°23'3616.1
2017-Aug-14 20:47N 40°37' E 013°01'717.3
2017-Aug-14 20:21N 40°35' E 013°11'1917.3
2017-Aug-14 19:15N 40°32' E 013°35'617.5
2017-Aug-14 18:53N 40°34' E 013°44'717.4
2017-Aug-14 18:30N 40°36' E 013°52'917.5
2017-Aug-14 18:00N 40°38' E 014°03'816.3
2017-Aug-14 17:30N 40°44' E 014°10'815.3
2017-Aug-14 17:01N 40°50' E 014°17'1 2.6
2017-Aug-14 16:29N 40°51' E 014°16'146 6.1
2017-Aug-13 16:23N 41°02' E 011°03'1118.0
2017-Aug-13 15:45N 41°04' E 010°48'1718.1
2017-Aug-13 14:49N 41°10' E 010°27'618.1
2017-Aug-13 14:31N 41°12' E 010°20'1418.0
2017-Aug-13 13:45N 41°15' E 010°03'517.6
2017-Aug-13 13:30N 41°17' E 009°57'917.9
2017-Aug-13 13:00N 41°20' E 009°46'917.5
2017-Aug-13 12:30N 41°22' E 009°35'816.6
2017-Aug-13 12:00N 41°22' E 009°24'6316.7
2017-Aug-13 08:13N 41°17' E 007°60'717.8
2017-Aug-13 07:50N 41°17' E 007°50'617.8
2017-Aug-13 07:30N 41°17' E 007°42'918.1
2017-Aug-13 07:00N 41°17' E 007°31'1017.9
2017-Aug-13 06:26N 41°17' E 007°17'2317.7
2017-Aug-13 05:09N 41°17' E 006°47'317.6
2017-Aug-13 04:59N 41°17' E 006°43'917.8
2017-Aug-13 04:31N 41°17' E 006°32'917.8
2017-Aug-13 04:00N 41°17' E 006°20'917.7
2017-Aug-13 03:30N 41°17' E 006°08'16218.3
2017-Aug-12 18:37N 41°17' E 002°32'218.2
2017-Aug-12 18:30N 41°17' E 002°29'917.9
2017-Aug-12 18:00N 41°15' E 002°18'611.3
2017-Aug-12 17:29N 41°17' E 002°11'4 8.6
2017-Aug-12 17:00N 41°22' E 002°11'2 0.2
2017-Aug-12 02:09N 41°19' E 002°10'1 8.3
2017-Aug-12 02:00N 41°18' E 002°11'912.4
2017-Aug-12 01:15N 41°12' E 002°20'515.2
2017-Aug-12 00:57N 41°10' E 002°26'715.3
2017-Aug-12 00:30N 41°07' E 002°34'815.5
2017-Aug-12 00:00N 41°03' E 002°43'815.5
2017-Aug-11 23:30N 40°59' E 002°52'815.6
2017-Aug-11 23:00N 40°55' E 003°01'815.8
2017-Aug-11 22:30N 40°51' E 003°10'816.7
2017-Aug-11 22:00N 40°47' E 003°19'917.1
2017-Aug-11 21:30N 40°42' E 003°29'28919.1
2017-Aug-11 06:25N 38°42' E 009°10'922.0
2017-Aug-11 05:59N 38°45' E 009°21'2920.2
2017-Aug-11 04:32N 39°03' E 009°51'194 6.6
2017-Aug-09 23:16N 42°14' E 010°37'817.0
2017-Aug-09 22:47N 42°20' E 010°30'717.3
2017-Aug-09 22:24N 42°26' E 010°25'717.1
2017-Aug-09 22:00N 42°31' E 010°19'1316.4
2017-Aug-09 21:14N 42°40' E 010°08'416.3
2017-Aug-09 21:01N 42°42' E 010°03'714.8
2017-Aug-09 20:31N 42°48' E 009°58'917.5
2017-Aug-09 20:01N 42°57' E 010°00'917.4
2017-Aug-09 19:31N 43°05' E 010°03'917.1
2017-Aug-09 19:01N 43°13' E 010°05'917.0
2017-Aug-09 18:30N 43°22' E 010°06'816.5
2017-Aug-09 18:01N 43°30' E 010°10'611.3
2017-Aug-09 17:30N 43°32' E 010°17'1 2.4
2017-Aug-09 17:00N 43°33' E 010°18'0 0.0
2017-Aug-09 16:27N 43°33' E 010°18'0 0.0
2017-Aug-09 15:57N 43°33' E 010°18'0 0.0
2017-Aug-09 15:27N 43°33' E 010°18'0 0.0
2017-Aug-09 15:00N 43°33' E 010°18'0 0.0
2017-Aug-09 14:30N 43°33' E 010°18'0 0.0
2017-Aug-09 14:00N 43°33' E 010°18'0 0.0
2017-Aug-09 13:30N 43°33' E 010°18'0 0.0
2017-Aug-09 13:00N 43°33' E 010°18'0 0.0
2017-Aug-09 12:30N 43°33' E 010°18'0 0.0
2017-Aug-09 11:57N 43°33' E 010°18'0 0.0
2017-Aug-09 11:27N 43°33' E 010°18'0 0.0
2017-Aug-09 11:00N 43°33' E 010°18'0 0.0
2017-Aug-09 10:27N 43°33' E 010°18'0 0.0
2017-Aug-09 10:00N 43°33' E 010°18'0 0.0
2017-Aug-09 09:30N 43°33' E 010°18'0 0.0
2017-Aug-09 09:00N 43°33' E 010°18'0 0.0
2017-Aug-09 08:30N 43°33' E 010°18'0 0.0
2017-Aug-09 08:00N 43°33' E 010°18'0 0.0
2017-Aug-09 07:30N 43°33' E 010°18'0 0.0
2017-Aug-09 07:00N 43°33' E 010°18'0 0.0
2017-Aug-09 06:30N 43°33' E 010°18'0 0.0
2017-Aug-09 06:00N 43°33' E 010°18'0 0.0
2017-Aug-09 05:30N 43°33' E 010°18'0 0.0
2017-Aug-09 05:00N 43°33' E 010°18'0 0.0
2017-Aug-09 04:27N 43°33' E 010°18'1 1.5
2017-Aug-09 04:00N 43°33' E 010°17'4 7.9
2017-Aug-09 03:30N 43°30' E 010°13'4 9.0
2017-Aug-09 03:00N 43°29' E 010°07'5 9.6
2017-Aug-09 02:30N 43°30' E 010°01'5 9.6
2017-Aug-09 02:00N 43°32' E 009°55'5 9.4
2017-Aug-09 01:30N 43°32' E 009°48'5 9.4
2017-Aug-09 01:00N 43°32' E 009°42'5 9.5
2017-Aug-09 00:30N 43°32' E 009°36'5 9.6
2017-Aug-09 00:00N 43°31' E 009°29'712.9
2017-Aug-08 23:29N 43°31' E 009°20'918.2
2017-Aug-08 23:00N 43°31' E 009°08'918.1
2017-Aug-08 22:31N 43°31' E 008°55'917.7
2017-Aug-08 22:00N 43°30' E 008°43'917.7
2017-Aug-08 21:30N 43°30' E 008°31'917.5
2017-Aug-08 21:00N 43°30' E 008°19'917.3
2017-Aug-08 20:30N 43°30' E 008°07'917.1
2017-Aug-08 20:01N 43°29' E 007°55'917.0
2017-Aug-08 19:31N 43°29' E 007°43'816.9
2017-Aug-08 19:00N 43°29' E 007°32'816.7
2017-Aug-08 18:31N 43°28' E 007°20'816.8
2017-Aug-08 18:01N 43°28' E 007°09'713.5
2017-Aug-08 17:30N 43°31' E 007°00'1 2.2
2017-Aug-08 16:57N 43°32' E 007°01'0 0.0
2017-Aug-08 16:30N 43°32' E 007°01'0 0.0
2017-Aug-08 16:00N 43°32' E 007°01'0 0.0
2017-Aug-08 15:30N 43°32' E 007°01'0 0.0
2017-Aug-08 15:00N 43°32' E 007°01'0 0.0
2017-Aug-08 14:30N 43°32' E 007°01'0 0.0
2017-Aug-08 13:57N 43°32' E 007°01'0 0.0
2017-Aug-08 13:30N 43°32' E 007°01'0 0.0
2017-Aug-08 13:00N 43°32' E 007°01'0 0.0
2017-Aug-08 12:30N 43°32' E 007°01'0 0.0
2017-Aug-08 12:00N 43°32' E 007°01'0 0.0
2017-Aug-08 11:30N 43°32' E 007°01'0 0.0
2017-Aug-08 10:57N 43°32' E 007°01'0 0.0
2017-Aug-08 10:30N 43°32' E 007°01'0 0.1
2017-Aug-08 10:00N 43°32' E 007°01'0 0.0
2017-Aug-08 09:30N 43°32' E 007°01'0 0.0
2017-Aug-08 09:00N 43°32' E 007°01'0 0.0
2017-Aug-08 08:24N 43°32' E 007°01'0 0.1
2017-Aug-08 08:00N 43°32' E 007°01'0 0.0
2017-Aug-08 07:30N 43°32' E 007°01'0 0.0
2017-Aug-08 07:00N 43°32' E 007°01'0 0.0
2017-Aug-08 06:30N 43°32' E 007°01'0 0.0
2017-Aug-08 06:00N 43°32' E 007°01'0 0.0
2017-Aug-08 05:30N 43°32' E 007°01'0 0.1
2017-Aug-08 05:00N 43°32' E 007°01'2 3.8
2017-Aug-08 04:30N 43°30' E 007°00'714.0
2017-Aug-08 04:00N 43°23' E 006°60'917.6
2017-Aug-08 03:30N 43°15' E 006°55'1019.2
2017-Aug-08 03:00N 43°07' E 006°49'1019.3
2017-Aug-08 02:30N 42°60' E 006°40'1020.9
2017-Aug-08 02:00N 42°53' E 006°29'1020.5
2017-Aug-08 01:30N 42°47' E 006°18'1019.0
2017-Aug-08 01:00N 42°44' E 006°06'1020.3
2017-Aug-08 00:30N 42°39' E 005°53'1221.6
2017-Aug-07 23:58N 42°34' E 005°39'5421.3
2017-Aug-07 21:27N 42°09' E 004°35'1022.2
2017-Aug-07 21:00N 42°05' E 004°23'1122.1
2017-Aug-07 20:30N 41°60' E 004°09'1021.2
2017-Aug-07 20:00N 41°55' E 003°57'1121.1
2017-Aug-07 19:30N 41°50' E 003°44'1021.3
2017-Aug-07 19:00N 41°45' E 003°32'1121.6
2017-Aug-07 18:30N 41°40' E 003°19'1122.3
2017-Aug-07 17:59N 41°35' E 003°05'1122.7
2017-Aug-07 17:30N 41°30' E 002°52'1222.6
2017-Aug-07 16:59N 41°25' E 002°38'1021.1
2017-Aug-07 16:30N 41°20' E 002°26'1019.6
2017-Aug-07 15:59N 41°16' E 002°14'5 9.3
2017-Aug-07 15:30N 41°20' E 002°10'1 0.2
2017-Aug-07 07:25N 41°21' E 002°11'0 0.0
2017-Aug-07 06:55N 41°21' E 002°11'  

Dump ship's entire track history